Terminal Aerodrome Forecast
Issued by NWS Memphis, TN

Home | Current Version | Previous Version | Text Only | Print | Product List | Glossary On
Versions: 1 2 3 4 5 6 7 8 9 10 11 12 13 14 15 16 17 18 19 20 21 22 23 24 25 26
000
FTUS44 KMEG 232040 AAA
TAFMEM
TAF AMD
KMEM 232040Z 2321/2418 23008KT P6SM VCSH BKN060
     FM232300 28008KT P6SM VCTS BKN050CB
     FM240400 31004KT P6SM VCTS BKN035CB OVC080
     FM240800 33005KT P6SM VCTS OVC015CB
     FM241400 30010KT P6SM OVC015=

USA.gov is the U.S. government's official web portal to all federal, state and local government web resources and services.